createdAt,value
2023-04-23T00:01:20.632Z,11.67
2023-04-23T00:04:26.692Z,11.83
2023-04-23T00:07:30.360Z,10.03
2023-04-23T00:10:35.200Z,11.13
2023-04-23T00:13:39.413Z,11.33
2023-04-23T00:16:43.330Z,11.57
2023-04-23T00:19:47.416Z,13.00
2023-04-23T00:22:51.291Z,12.43
2023-04-23T00:25:55.985Z,12.90
2023-04-23T00:28:59.157Z,12.93
2023-04-23T00:32:03.383Z,11.80
2023-04-23T00:35:07.489Z,11.83
2023-04-23T00:38:10.717Z,11.63
2023-04-23T00:41:16.483Z,12.47
2023-04-23T00:44:19.702Z,12.93
2023-04-23T00:47:23.739Z,12.40
2023-04-23T00:50:27.152Z,12.07
2023-04-23T00:53:30.709Z,11.23
2023-04-23T00:56:35.548Z,11.43
2023-04-23T00:59:38.768Z,11.27
2023-04-23T01:02:44.387Z,10.30
2023-04-23T01:05:48.829Z,11.07
2023-04-23T01:08:52.310Z,12.43
2023-04-23T01:11:58.922Z,11.70
2023-04-23T01:15:02.164Z,12.70
2023-04-23T01:18:07.660Z,12.87
2023-04-23T01:21:12.843Z,11.10
2023-04-23T01:24:17.247Z,11.90
2023-04-23T01:27:21.101Z,10.50
2023-04-23T01:30:24.991Z,11.80
2023-04-23T01:33:28.400Z,11.67
2023-04-23T01:36:32.424Z,11.30
2023-04-23T01:39:37.237Z,10.87
2023-04-23T01:42:41.369Z,11.30
2023-04-23T01:45:44.693Z,11.47
2023-04-23T01:48:47.874Z,11.10
2023-04-23T01:51:51.134Z,11.37
2023-04-23T01:54:55.782Z,11.43
2023-04-23T01:57:58.911Z,10.90
2023-04-23T02:01:02.004Z,11.57
2023-04-23T02:04:05.341Z,11.60
2023-04-23T02:07:08.950Z,12.63
2023-04-23T02:10:14.322Z,11.37
2023-04-23T02:13:17.647Z,11.53
2023-04-23T02:16:22.034Z,11.90
2023-04-23T02:19:25.527Z,12.17
2023-04-23T02:22:29.178Z,12.37
2023-04-23T02:25:33.879Z,11.87
2023-04-23T02:28:37.244Z,11.70
2023-04-23T02:31:40.352Z,12.50
2023-04-23T02:34:43.814Z,13.23
2023-04-23T02:37:47.216Z,12.73
2023-04-23T02:40:51.715Z,12.77
2023-04-23T02:43:58.141Z,13.87
2023-04-23T02:47:02.591Z,13.63
2023-04-23T02:50:06.535Z,12.40
2023-04-23T02:53:09.709Z,14.10
2023-04-23T02:56:14.588Z,14.83
2023-04-23T02:59:17.819Z,14.40
2023-04-23T03:02:21.202Z,12.60
2023-04-23T03:05:24.575Z,13.00
2023-04-23T03:08:28.133Z,11.57
2023-04-23T03:11:33.202Z,11.00
2023-04-23T03:14:36.652Z,12.20
2023-04-23T03:17:39.935Z,10.87
2023-04-23T03:20:43.378Z,11.73
2023-04-23T03:23:48.266Z,11.17
2023-04-23T03:26:52.850Z,11.27
2023-04-23T03:29:56.023Z,12.13
2023-04-23T03:32:59.306Z,12.97
2023-04-23T03:36:03.423Z,11.50
2023-04-23T03:39:07.215Z,11.73
2023-04-23T03:42:11.639Z,12.73
2023-04-23T03:45:16.929Z,12.00
2023-04-23T03:48:20.854Z,16.50
2023-04-23T03:51:23.946Z,14.47
2023-04-23T03:54:28.512Z,13.30
2023-04-23T03:57:32.968Z,13.03
2023-04-23T04:00:36.411Z,13.20
2023-04-23T04:03:39.692Z,14.33
2023-04-23T04:06:43.064Z,13.27
2023-04-23T04:09:47.138Z,14.90
2023-04-23T04:12:51.834Z,13.70
2023-04-23T04:15:54.871Z,14.57
2023-04-23T04:18:57.971Z,14.80
2023-04-23T04:22:03.300Z,15.90
2023-04-23T04:25:07.997Z,14.70
2023-04-23T04:28:12.742Z,12.67
2023-04-23T04:31:16.587Z,12.70
2023-04-23T04:34:20.261Z,11.13
2023-04-23T04:37:23.343Z,11.23
2023-04-23T04:40:27.050Z,11.27
2023-04-23T04:43:32.492Z,10.63
2023-04-23T04:46:40.705Z,10.73
2023-04-23T04:49:43.900Z,8.87
2023-04-23T04:52:46.959Z,11.10
2023-04-23T04:55:51.833Z,11.10
2023-04-23T04:58:56.401Z,9.80
2023-04-23T05:01:59.841Z,10.57
2023-04-23T05:05:03.893Z,10.17
2023-04-23T05:08:09.627Z,11.60
2023-04-23T05:11:12.792Z,10.43
2023-04-23T05:14:17.472Z,10.37
2023-04-23T05:17:20.758Z,10.03
2023-04-23T05:20:24.152Z,9.27
2023-04-23T05:23:27.246Z,10.47
2023-04-23T05:26:30.243Z,10.00
2023-04-23T05:29:34.802Z,10.07
2023-04-23T05:32:41.545Z,9.47
2023-04-23T05:35:44.910Z,9.50
2023-04-23T05:38:48.623Z,8.60
2023-04-23T05:41:54.367Z,9.87
2023-04-23T05:44:58.872Z,8.97
2023-04-23T05:48:01.918Z,9.37
2023-04-23T05:51:05.428Z,9.07
2023-04-23T05:54:08.472Z,9.00
2023-04-23T05:57:12.119Z,8.83
2023-04-23T06:00:17.090Z,8.90
2023-04-23T06:03:20.446Z,9.10
2023-04-23T06:06:24.053Z,8.43
2023-04-23T06:09:27.065Z,9.17
2023-04-23T06:12:30.162Z,8.37
2023-04-23T06:15:34.770Z,8.50
2023-04-23T06:18:39.226Z,7.70
2023-04-23T06:21:42.513Z,8.30
2023-04-23T06:24:45.588Z,8.90
2023-04-23T06:27:48.722Z,8.50
2023-04-23T06:30:53.420Z,8.87
2023-04-23T06:33:56.576Z,7.97
2023-04-23T06:37:00.043Z,8.33
2023-04-23T06:40:03.143Z,7.73
2023-04-23T06:43:07.982Z,8.00
2023-04-23T06:46:12.815Z,7.30
2023-04-23T06:49:15.971Z,7.17
2023-04-23T06:52:19.171Z,7.60
2023-04-23T06:55:26.033Z,7.10
2023-04-23T06:58:32.083Z,8.53
2023-04-23T07:01:36.995Z,6.80
2023-04-23T07:04:40.814Z,7.10
2023-04-23T07:07:44.396Z,6.83
2023-04-23T07:10:47.580Z,6.77
2023-04-23T07:13:50.660Z,6.87
2023-04-23T07:16:55.992Z,7.10
2023-04-23T07:19:59.275Z,7.30
2023-04-23T07:23:04.055Z,6.80
2023-04-23T07:26:07.372Z,8.07
2023-04-23T07:29:11.357Z,8.50
2023-04-23T07:32:16.040Z,8.57
2023-04-23T07:35:20.082Z,9.03
2023-04-23T07:38:23.116Z,7.90
2023-04-23T07:41:26.238Z,9.00
2023-04-23T07:44:29.266Z,8.20
2023-04-23T07:47:34.087Z,9.07
2023-04-23T07:50:37.629Z,8.97
2023-04-23T07:53:41.203Z,8.90
2023-04-23T07:56:44.242Z,8.23
2023-04-23T07:59:47.291Z,8.87
2023-04-23T08:02:52.781Z,8.97
2023-04-23T08:05:56.686Z,8.47
2023-04-23T08:09:00.397Z,9.50
2023-04-23T08:12:03.656Z,9.17
2023-04-23T08:15:07.667Z,9.13
2023-04-23T08:18:12.118Z,9.07
2023-04-23T08:21:15.229Z,9.67
2023-04-23T08:24:18.251Z,11.13
2023-04-23T08:27:22.692Z,9.17
2023-04-23T08:30:26.953Z,9.73
2023-04-23T08:33:31.292Z,9.63
2023-04-23T08:36:37.495Z,10.13
2023-04-23T08:39:44.445Z,9.80
2023-04-23T08:42:51.792Z,9.80
2023-04-23T08:45:55.989Z,9.60
2023-04-23T08:49:01.764Z,9.37
2023-04-23T08:52:16.009Z,9.73
2023-04-23T08:55:19.674Z,9.93
2023-04-23T08:58:23.183Z,9.13
2023-04-23T09:01:26.462Z,9.47
2023-04-23T09:04:31.906Z,9.93
2023-04-23T09:07:35.790Z,9.87
2023-04-23T09:10:41.433Z,10.07
2023-04-23T09:13:44.654Z,10.00
2023-04-23T09:16:47.764Z,9.87
2023-04-23T09:19:52.987Z,9.67
2023-04-23T09:22:56.002Z,10.73
2023-04-23T09:25:59.326Z,8.93
2023-04-23T09:29:02.418Z,8.87
2023-04-23T09:32:09.209Z,8.50
2023-04-23T09:35:16.236Z,8.07
2023-04-23T09:38:20.920Z,8.67
2023-04-23T09:41:24.511Z,8.43
2023-04-23T09:44:29.554Z,6.60
2023-04-23T09:47:34.651Z,6.33
2023-04-23T09:50:40.905Z,5.30
2023-04-23T09:53:45.926Z,5.07
2023-04-23T09:56:53.673Z,5.03
2023-04-23T10:00:07.410Z,4.37
2023-04-23T10:03:17.231Z,4.53
2023-04-23T10:09:33.941Z,5.00
2023-04-23T10:12:53.627Z,6.57
2023-04-23T10:16:07.099Z,5.77
2023-04-23T10:19:22.609Z,5.07
2023-04-23T10:22:30.160Z,5.30
2023-04-23T10:25:34.443Z,5.83
2023-04-23T10:28:38.340Z,6.73
2023-04-23T10:31:42.681Z,6.53
2023-04-23T10:34:46.651Z,5.97
2023-04-23T10:37:53.033Z,7.30
2023-04-23T10:40:57.639Z,8.43
2023-04-23T10:44:00.798Z,9.23
2023-04-23T10:47:05.269Z,9.67
2023-04-23T10:50:22.848Z,8.53
2023-04-23T10:53:27.611Z,9.10
2023-04-23T10:56:30.650Z,7.90
2023-04-23T10:59:35.129Z,6.77
2023-04-23T11:02:46.254Z,6.63
2023-04-23T11:05:50.194Z,7.00
2023-04-23T11:08:56.425Z,7.00
2023-04-23T11:12:01.481Z,8.27
2023-04-23T11:15:15.045Z,7.43
2023-04-23T11:18:18.053Z,8.03
2023-04-23T11:21:21.307Z,8.53
2023-04-23T11:24:26.040Z,9.03
2023-04-23T11:27:32.062Z,9.67
2023-04-23T11:30:35.103Z,8.97
2023-04-23T11:33:40.093Z,9.30
2023-04-23T11:36:43.575Z,9.37
2023-04-23T11:39:49.313Z,8.80
2023-04-23T11:42:56.951Z,9.80
2023-04-23T11:46:02.379Z,9.77
2023-04-23T11:49:06.346Z,9.77
2023-04-23T11:52:09.436Z,9.40
2023-04-23T11:55:14.033Z,8.50
2023-04-23T11:58:19.279Z,9.20
2023-04-23T12:01:22.412Z,9.07
2023-04-23T12:04:27.418Z,9.70
2023-04-23T12:07:33.459Z,9.20
2023-04-23T12:10:44.197Z,8.43
2023-04-23T12:13:47.168Z,8.33
2023-04-23T12:16:52.326Z,7.93
2023-04-23T12:19:56.283Z,7.03
2023-04-23T12:23:05.423Z,6.27
2023-04-23T12:26:13.812Z,6.27
2023-04-23T12:29:19.519Z,5.17
2023-04-23T12:32:26.052Z,4.83
2023-04-23T12:35:40.447Z,4.23
2023-04-23T12:38:43.582Z,4.27
2023-04-23T12:41:47.993Z,2.90
2023-04-23T12:44:52.214Z,3.70
2023-04-23T12:47:55.346Z,3.27
2023-04-23T12:50:58.313Z,3.77
2023-04-23T12:54:01.291Z,3.00
2023-04-23T12:57:09.275Z,3.07
2023-04-23T13:00:13.071Z,2.70
2023-04-23T13:03:17.509Z,2.70
2023-04-23T13:06:21.032Z,3.00
2023-04-23T13:09:26.787Z,2.73
2023-04-23T13:12:31.719Z,3.10
2023-04-23T13:15:34.789Z,2.63
2023-04-23T13:18:38.091Z,2.60
2023-04-23T13:21:41.291Z,3.07
2023-04-23T13:24:44.258Z,3.27
2023-04-23T13:27:48.728Z,3.00
2023-04-23T13:30:51.654Z,3.10
2023-04-23T13:33:54.970Z,3.30
2023-04-23T13:36:59.243Z,3.47
2023-04-23T13:40:02.780Z,3.50
2023-04-23T13:43:07.250Z,2.90
2023-04-23T13:46:10.653Z,3.30
2023-04-23T13:49:13.745Z,3.50
2023-04-23T13:52:16.756Z,3.30
2023-04-23T13:55:20.045Z,3.50
2023-04-23T13:58:24.749Z,3.10
2023-04-23T14:01:27.922Z,3.60
2023-04-23T14:04:33.348Z,3.20
2023-04-23T14:07:36.588Z,3.43
2023-04-23T14:10:40.957Z,3.87
2023-04-23T14:13:46.289Z,3.70
2023-04-23T14:16:49.273Z,3.70
2023-04-23T14:19:52.235Z,3.30
2023-04-23T14:23:02.429Z,3.77
2023-04-23T14:26:09.054Z,3.30
2023-04-23T14:29:24.106Z,3.87
2023-04-23T14:32:27.161Z,3.63
2023-04-23T14:35:42.146Z,3.60
2023-04-23T14:38:46.339Z,3.47
2023-04-23T14:41:49.501Z,3.07
2023-04-23T14:44:56.724Z,3.17
2023-04-23T14:48:00.124Z,2.80
2023-04-23T14:51:03.302Z,3.00
2023-04-23T14:54:07.136Z,3.20
2023-04-23T14:57:10.218Z,3.23
2023-04-23T15:00:15.401Z,3.10
2023-04-23T15:03:18.494Z,3.00
2023-04-23T15:06:22.095Z,3.20
2023-04-23T15:09:25.073Z,2.70
2023-04-23T15:12:50.584Z,2.63
2023-04-23T15:15:59.982Z,2.60
2023-04-23T15:19:06.288Z,2.70
2023-04-23T15:22:09.424Z,2.67
2023-04-23T15:25:12.560Z,2.77
2023-04-23T15:28:15.690Z,2.43
2023-04-23T15:31:20.062Z,2.70
2023-04-23T15:34:23.155Z,2.30
2023-04-23T15:37:27.834Z,2.53
2023-04-23T15:40:30.910Z,2.57
2023-04-23T15:43:34.219Z,2.30
2023-04-23T15:46:40.742Z,1.87
2023-04-23T15:49:44.082Z,2.03
2023-04-23T15:52:49.245Z,2.40
2023-04-23T15:55:53.792Z,2.80
2023-04-23T15:58:57.024Z,2.50
2023-04-23T16:02:01.401Z,2.40
2023-04-23T16:05:05.103Z,2.60
2023-04-23T16:08:08.340Z,2.97
2023-04-23T16:11:13.267Z,2.50
2023-04-23T16:14:16.191Z,2.30
2023-04-23T16:17:21.044Z,3.17
2023-04-23T16:20:24.329Z,3.40
2023-04-23T16:23:27.337Z,3.10
2023-04-23T16:26:30.805Z,2.80
2023-04-23T16:29:35.641Z,2.80
2023-04-23T16:32:39.931Z,3.30
2023-04-23T16:35:42.904Z,3.47
2023-04-23T16:38:49.227Z,3.30
2023-04-23T16:41:52.477Z,3.30
2023-04-23T16:44:56.469Z,3.30
2023-04-23T16:48:01.065Z,3.57
2023-04-23T16:51:04.314Z,3.57
2023-04-23T16:54:07.344Z,3.97
2023-04-23T16:57:11.665Z,3.73
2023-04-23T17:00:16.505Z,3.80
2023-04-23T17:03:22.280Z,3.70
2023-04-23T17:06:28.126Z,3.37
2023-04-23T17:09:31.741Z,3.63
2023-04-23T17:12:34.781Z,3.33
2023-04-23T17:15:37.699Z,3.30
2023-04-23T17:18:42.295Z,4.83
2023-04-23T17:21:45.660Z,3.80
2023-04-23T17:24:48.842Z,4.10
2023-04-23T17:27:52.207Z,4.40
2023-04-23T17:30:55.939Z,3.47
2023-04-23T17:34:00.334Z,3.50
2023-04-23T17:37:04.502Z,3.40
2023-04-23T17:40:09.664Z,3.30
2023-04-23T17:43:12.914Z,4.40
2023-04-23T17:46:16.179Z,3.70
2023-04-23T17:49:23.349Z,3.50
2023-04-23T17:52:26.525Z,3.30
2023-04-23T17:55:29.829Z,3.40
2023-04-23T17:58:33.110Z,3.43
2023-04-23T18:01:36.296Z,3.10
2023-04-23T18:04:41.110Z,4.70
2023-04-23T18:07:45.066Z,5.80
2023-04-23T18:10:48.168Z,7.00
2023-04-23T18:13:53.490Z,6.63
2023-04-23T18:16:56.995Z,5.53
2023-04-23T18:20:01.547Z,5.07
2023-04-23T18:23:04.670Z,4.47
2023-04-23T18:26:07.770Z,4.53
2023-04-23T18:29:10.826Z,4.80
2023-04-23T18:32:20.927Z,4.60
2023-04-23T18:35:32.382Z,4.53
2023-04-23T18:38:40.658Z,4.63
2023-04-23T18:41:44.380Z,5.50
2023-04-23T18:44:47.856Z,5.10
2023-04-23T18:47:52.741Z,4.50
2023-04-23T18:50:59.270Z,5.20
2023-04-23T18:54:02.578Z,4.70
2023-04-23T18:57:08.998Z,4.93
2023-04-23T19:00:13.255Z,5.03
2023-04-23T19:03:25.948Z,5.03
2023-04-23T19:06:32.410Z,5.87
2023-04-23T19:09:35.599Z,5.77
2023-04-23T19:12:38.748Z,7.00
2023-04-23T19:15:41.893Z,6.23
2023-04-23T19:18:45.061Z,7.43
2023-04-23T19:21:49.477Z,6.40
2023-04-23T19:24:52.497Z,5.90
2023-04-23T19:27:58.236Z,5.93
2023-04-23T19:31:01.500Z,6.10
2023-04-23T19:34:04.533Z,5.63
2023-04-23T19:37:09.037Z,6.50
2023-04-23T19:40:12.475Z,6.37
2023-04-23T19:43:15.983Z,6.27
2023-04-23T19:46:20.122Z,6.67
2023-04-23T19:49:23.247Z,6.00
2023-04-23T19:52:28.787Z,5.87
2023-04-23T19:55:32.132Z,6.37
2023-04-23T19:58:35.522Z,6.50
2023-04-23T20:01:38.499Z,8.50
2023-04-23T20:04:42.045Z,8.60
2023-04-23T20:07:47.262Z,8.50
2023-04-23T20:10:50.406Z,8.73
2023-04-23T20:13:53.489Z,7.70
2023-04-23T20:16:56.682Z,6.90
2023-04-23T20:20:01.894Z,7.00
2023-04-23T20:23:06.879Z,7.20
2023-04-23T20:26:10.029Z,7.67
2023-04-23T20:29:13.298Z,6.57
2023-04-23T20:32:16.414Z,6.33
2023-04-23T20:35:19.638Z,7.17
2023-04-23T20:38:24.698Z,7.27
2023-04-23T20:41:29.242Z,6.57
2023-04-23T20:44:32.334Z,6.37
2023-04-23T20:47:35.488Z,6.87
2023-04-23T20:50:39.064Z,6.13
2023-04-23T20:53:43.639Z,6.63
2023-04-23T20:56:46.632Z,5.97
2023-04-23T20:59:49.775Z,6.87
2023-04-23T21:02:53.637Z,6.00
2023-04-23T21:05:58.672Z,6.17
2023-04-23T21:09:04.588Z,6.87
2023-04-23T21:12:07.958Z,6.90
2023-04-23T21:15:12.683Z,7.17
2023-04-23T21:18:16.476Z,5.83
2023-04-23T21:21:19.559Z,5.50
2023-04-23T21:24:24.168Z,6.23
2023-04-23T21:27:27.300Z,6.20
2023-04-23T21:30:46.268Z,6.00
2023-04-23T21:33:49.284Z,5.60
2023-04-23T21:36:52.413Z,5.80
2023-04-23T21:39:57.089Z,5.20
2023-04-23T21:43:00.344Z,5.47
2023-04-23T21:46:03.630Z,5.77
2023-04-23T21:49:06.867Z,5.80
2023-04-23T21:52:10.324Z,6.73
2023-04-23T21:55:15.131Z,6.40
2023-04-23T21:58:18.406Z,6.47
2023-04-23T22:01:21.587Z,5.97
2023-04-23T22:04:27.613Z,6.63
2023-04-23T22:07:32.290Z,6.23
2023-04-23T22:10:42.806Z,6.43
2023-04-23T22:13:45.849Z,6.23
2023-04-23T22:16:49.621Z,6.60
2023-04-23T22:19:53.233Z,6.13
2023-04-23T22:22:56.562Z,6.07
2023-04-23T22:26:01.298Z,6.37
2023-04-23T22:29:04.706Z,5.60
2023-04-23T22:32:07.979Z,5.80
2023-04-23T22:35:11.513Z,6.00
2023-04-23T22:38:15.833Z,5.90
2023-04-23T22:41:20.868Z,5.87
2023-04-23T22:44:24.023Z,5.50
2023-04-23T22:47:29.209Z,6.90
2023-04-23T22:50:32.319Z,6.13
2023-04-23T22:53:35.401Z,6.00
2023-04-23T22:56:40.115Z,6.70
2023-04-23T22:59:43.574Z,6.07
2023-04-23T23:02:47.006Z,6.00
2023-04-23T23:05:50.165Z,6.10
2023-04-23T23:08:53.411Z,5.80
2023-04-23T23:11:57.977Z,5.87
2023-04-23T23:15:01.868Z,5.83
2023-04-23T23:18:06.163Z,5.50
2023-04-23T23:21:09.382Z,5.97
2023-04-23T23:24:12.484Z,5.90
2023-04-23T23:27:17.017Z,6.17
2023-04-23T23:30:20.347Z,6.00
2023-04-23T23:33:23.572Z,6.30
2023-04-23T23:36:27.897Z,5.83
2023-04-23T23:39:31.006Z,6.23
2023-04-23T23:42:35.599Z,6.10
2023-04-23T23:45:38.757Z,6.10
2023-04-23T23:48:41.914Z,6.30
2023-04-23T23:51:45.634Z,5.50
2023-04-23T23:54:48.629Z,6.57
2023-04-23T23:57:54.711Z,6.90
